sensor_id;sensor_type;location;lat;lon;timestamp;P1;durP1;ratioP1;P2;durP2;ratioP2
43327;SDS011;28923;45.412;10.852;2023-07-24T04:34:06;14.88;;;9.75;;
43327;SDS011;28923;45.412;10.852;2023-07-24T04:36:34;16.02;;;9.55;;
43327;SDS011;28923;45.412;10.852;2023-07-24T04:39:01;19.77;;;10.00;;
43327;SDS011;28923;45.412;10.852;2023-07-24T04:41:27;13.88;;;9.13;;
43327;SDS011;28923;45.412;10.852;2023-07-24T04:43:53;14.10;;;9.35;;
43327;SDS011;28923;45.412;10.852;2023-07-24T04:46:18;14.57;;;9.20;;
43327;SDS011;28923;45.412;10.852;2023-07-24T04:48:43;16.00;;;8.90;;
43327;SDS011;28923;45.412;10.852;2023-07-24T04:51:09;17.25;;;10.60;;
43327;SDS011;28923;45.412;10.852;2023-07-24T04:53:34;15.32;;;9.38;;
43327;SDS011;28923;45.412;10.852;2023-07-24T04:55:59;15.23;;;8.77;;
43327;SDS011;28923;45.412;10.852;2023-07-24T04:58:25;15.95;;;9.90;;
43327;SDS011;28923;45.412;10.852;2023-07-24T05:00:50;13.55;;;8.98;;
43327;SDS011;28923;45.412;10.852;2023-07-24T05:03:16;15.68;;;10.02;;
43327;SDS011;28923;45.412;10.852;2023-07-24T05:05:42;17.00;;;9.82;;
43327;SDS011;28923;45.412;10.852;2023-07-24T05:08:07;15.13;;;9.35;;
43327;SDS011;28923;45.412;10.852;2023-07-24T05:10:36;14.43;;;9.85;;
43327;SDS011;28923;45.412;10.852;2023-07-24T05:13:01;15.55;;;9.57;;
43327;SDS011;28923;45.412;10.852;2023-07-24T05:15:27;15.80;;;9.35;;
43327;SDS011;28923;45.412;10.852;2023-07-24T05:17:52;16.02;;;9.35;;
43327;SDS011;28923;45.412;10.852;2023-07-24T05:20:17;17.80;;;10.48;;
43327;SDS011;28923;45.412;10.852;2023-07-24T05:22:43;17.02;;;9.63;;
43327;SDS011;28923;45.412;10.852;2023-07-24T05:25:08;17.73;;;10.27;;
43327;SDS011;28923;45.412;10.852;2023-07-24T05:27:34;17.05;;;10.05;;
43327;SDS011;28923;45.412;10.852;2023-07-24T05:30:00;16.58;;;9.80;;
43327;SDS011;28923;45.412;10.852;2023-07-24T05:32:26;15.45;;;9.60;;
43327;SDS011;28923;45.412;10.852;2023-07-24T05:34:51;18.85;;;10.95;;
43327;SDS011;28923;45.412;10.852;2023-07-24T05:37:16;19.38;;;10.57;;
43327;SDS011;28923;45.412;10.852;2023-07-24T05:39:42;16.20;;;11.30;;
43327;SDS011;28923;45.412;10.852;2023-07-24T05:42:07;16.35;;;10.20;;
43327;SDS011;28923;45.412;10.852;2023-07-24T05:44:33;22.02;;;10.80;;
43327;SDS011;28923;45.412;10.852;2023-07-24T05:47:00;22.00;;;11.25;;
43327;SDS011;28923;45.412;10.852;2023-07-24T05:49:26;14.38;;;9.80;;
43327;SDS011;28923;45.412;10.852;2023-07-24T05:51:51;18.92;;;10.80;;
43327;SDS011;28923;45.412;10.852;2023-07-24T05:54:17;18.50;;;10.85;;
43327;SDS011;28923;45.412;10.852;2023-07-24T05:56:43;15.52;;;9.93;;
43327;SDS011;28923;45.412;10.852;2023-07-24T05:59:08;19.50;;;12.90;;
43327;SDS011;28923;45.412;10.852;2023-07-24T06:01:33;18.42;;;11.15;;
43327;SDS011;28923;45.412;10.852;2023-07-24T06:03:59;20.70;;;10.20;;
43327;SDS011;28923;45.412;10.852;2023-07-24T06:06:24;15.75;;;9.32;;
43327;SDS011;28923;45.412;10.852;2023-07-24T06:08:50;17.15;;;9.93;;
43327;SDS011;28923;45.412;10.852;2023-07-24T06:11:16;16.55;;;10.02;;
43327;SDS011;28923;45.412;10.852;2023-07-24T06:13:41;16.13;;;9.57;;
43327;SDS011;28923;45.412;10.852;2023-07-24T06:16:06;17.92;;;10.07;;
43327;SDS011;28923;45.412;10.852;2023-07-24T06:18:33;15.35;;;9.30;;
43327;SDS011;28923;45.412;10.852;2023-07-24T06:20:58;16.23;;;9.38;;
43327;SDS011;28923;45.412;10.852;2023-07-24T06:23:23;15.93;;;9.73;;
43327;SDS011;28923;45.412;10.852;2023-07-24T06:25:49;14.95;;;9.43;;
43327;SDS011;28923;45.412;10.852;2023-07-24T06:28:14;15.70;;;10.02;;
43327;SDS011;28923;45.412;10.852;2023-07-24T06:30:39;18.92;;;9.70;;
43327;SDS011;28923;45.412;10.852;2023-07-24T06:33:05;15.70;;;9.05;;
43327;SDS011;28923;45.412;10.852;2023-07-24T06:35:30;15.77;;;9.75;;
43327;SDS011;28923;45.412;10.852;2023-07-24T06:37:56;13.93;;;8.93;;
43327;SDS011;28923;45.412;10.852;2023-07-24T06:40:21;14.18;;;8.60;;
43327;SDS011;28923;45.412;10.852;2023-07-24T06:42:46;14.98;;;8.25;;
43327;SDS011;28923;45.412;10.852;2023-07-24T06:45:12;15.77;;;8.57;;
43327;SDS011;28923;45.412;10.852;2023-07-24T06:47:37;14.02;;;8.13;;
43327;SDS011;28923;45.412;10.852;2023-07-24T06:50:03;13.40;;;8.45;;
43327;SDS011;28923;45.412;10.852;2023-07-24T06:52:29;12.82;;;7.97;;
43327;SDS011;28923;45.412;10.852;2023-07-24T06:54:55;10.80;;;7.43;;
43327;SDS011;28923;45.412;10.852;2023-07-24T06:57:20;12.63;;;7.85;;
43327;SDS011;28923;45.412;10.852;2023-07-24T06:59:46;10.15;;;7.40;;
43327;SDS011;28923;45.412;10.852;2023-07-24T07:02:11;11.80;;;7.80;;
43327;SDS011;28923;45.412;10.852;2023-07-24T07:04:36;12.45;;;7.60;;
43327;SDS011;28923;45.412;10.852;2023-07-24T07:07:02;11.20;;;7.28;;
43327;SDS011;28923;45.412;10.852;2023-07-24T07:09:27;12.35;;;7.32;;
43327;SDS011;28923;45.412;10.852;2023-07-24T07:11:52;9.30;;;6.55;;
43327;SDS011;28923;45.412;10.852;2023-07-24T07:14:18;11.35;;;7.05;;
43327;SDS011;28923;45.412;10.852;2023-07-24T07:16:43;9.75;;;6.80;;
43327;SDS011;28923;45.412;10.852;2023-07-24T07:19:09;10.98;;;6.60;;
43327;SDS011;28923;45.412;10.852;2023-07-24T07:21:35;10.27;;;6.53;;
43327;SDS011;28923;45.412;10.852;2023-07-24T07:24:00;9.82;;;6.05;;
43327;SDS011;28923;45.412;10.852;2023-07-24T07:26:26;10.77;;;6.55;;
43327;SDS011;28923;45.412;10.852;2023-07-24T07:28:51;9.50;;;6.28;;
43327;SDS011;28923;45.412;10.852;2023-07-24T07:31:17;9.15;;;6.22;;
43327;SDS011;28923;45.412;10.852;2023-07-24T07:33:42;10.43;;;6.32;;
43327;SDS011;28923;45.412;10.852;2023-07-24T07:36:08;9.70;;;6.00;;
43327;SDS011;28923;45.412;10.852;2023-07-24T07:38:33;9.73;;;5.85;;
43327;SDS011;28923;45.412;10.852;2023-07-24T07:40:58;8.60;;;6.38;;
43327;SDS011;28923;45.412;10.852;2023-07-24T07:43:24;10.38;;;6.40;;
43327;SDS011;28923;45.412;10.852;2023-07-24T07:45:49;9.07;;;6.53;;
43327;SDS011;28923;45.412;10.852;2023-07-24T07:48:14;9.35;;;6.18;;
43327;SDS011;28923;45.412;10.852;2023-07-24T07:50:40;9.57;;;5.78;;
43327;SDS011;28923;45.412;10.852;2023-07-24T07:53:05;8.02;;;5.80;;
43327;SDS011;28923;45.412;10.852;2023-07-24T07:55:31;8.38;;;5.85;;
43327;SDS011;28923;45.412;10.852;2023-07-24T07:57:56;10.27;;;6.00;;
43327;SDS011;28923;45.412;10.852;2023-07-24T08:00:21;8.38;;;5.20;;
43327;SDS011;28923;45.412;10.852;2023-07-24T08:02:47;7.68;;;5.03;;
43327;SDS011;28923;45.412;10.852;2023-07-24T08:05:13;7.20;;;5.15;;
43327;SDS011;28923;45.412;10.852;2023-07-24T08:07:38;7.55;;;5.05;;
43327;SDS011;28923;45.412;10.852;2023-07-24T08:10:03;6.80;;;5.05;;
43327;SDS011;28923;45.412;10.852;2023-07-24T08:12:29;8.48;;;5.25;;
43327;SDS011;28923;45.412;10.852;2023-07-24T08:14:57;8.98;;;5.40;;
43327;SDS011;28923;45.412;10.852;2023-07-24T08:17:23;6.88;;;4.88;;
43327;SDS011;28923;45.412;10.852;2023-07-24T08:19:48;8.15;;;5.03;;
43327;SDS011;28923;45.412;10.852;2023-07-24T08:22:13;6.88;;;5.00;;
43327;SDS011;28923;45.412;10.852;2023-07-24T08:24:39;7.97;;;5.50;;
43327;SDS011;28923;45.412;10.852;2023-07-24T08:27:04;8.45;;;5.05;;
43327;SDS011;28923;45.412;10.852;2023-07-24T08:29:30;7.55;;;5.28;;
43327;SDS011;28923;45.412;10.852;2023-07-24T08:31:55;7.97;;;4.95;;
43327;SDS011;28923;45.412;10.852;2023-07-24T08:34:20;7.53;;;4.97;;
43327;SDS011;28923;45.412;10.852;2023-07-24T08:36:46;6.35;;;4.00;;
43327;SDS011;28923;45.412;10.852;2023-07-24T08:39:11;7.07;;;4.50;;
43327;SDS011;28923;45.412;10.852;2023-07-24T08:41:36;7.35;;;5.00;;
43327;SDS011;28923;45.412;10.852;2023-07-24T08:44:03;6.78;;;4.60;;
43327;SDS011;28923;45.412;10.852;2023-07-24T08:46:29;5.90;;;4.40;;
43327;SDS011;28923;45.412;10.852;2023-07-24T08:48:54;6.25;;;4.50;;
43327;SDS011;28923;45.412;10.852;2023-07-24T08:51:20;6.47;;;4.72;;
43327;SDS011;28923;45.412;10.852;2023-07-24T08:53:47;5.93;;;4.13;;
43327;SDS011;28923;45.412;10.852;2023-07-24T08:56:13;5.03;;;4.10;;
43327;SDS011;28923;45.412;10.852;2023-07-24T08:58:39;5.75;;;4.40;;
43327;SDS011;28923;45.412;10.852;2023-07-24T09:01:04;5.47;;;4.00;;
43327;SDS011;28923;45.412;10.852;2023-07-24T09:03:30;7.30;;;4.25;;
43327;SDS011;28923;45.412;10.852;2023-07-24T09:05:56;4.88;;;3.55;;
43327;SDS011;28923;45.412;10.852;2023-07-24T09:11:13;6.18;;;3.88;;
43327;SDS011;28923;45.412;10.852;2023-07-24T09:13:42;5.18;;;3.63;;
43327;SDS011;28923;45.412;10.852;2023-07-24T09:16:08;7.75;;;4.10;;
43327;SDS011;28923;45.412;10.852;2023-07-24T09:18:40;5.43;;;3.97;;
43327;SDS011;28923;45.412;10.852;2023-07-24T09:21:06;6.28;;;3.90;;
43327;SDS011;28923;45.412;10.852;2023-07-24T09:23:31;5.07;;;3.58;;
43327;SDS011;28923;45.412;10.852;2023-07-24T09:25:57;5.85;;;4.03;;
43327;SDS011;28923;45.412;10.852;2023-07-24T09:28:22;5.38;;;3.92;;
43327;SDS011;28923;45.412;10.852;2023-07-24T09:30:51;6.38;;;4.03;;
43327;SDS011;28923;45.412;10.852;2023-07-24T09:33:17;7.22;;;3.38;;
43327;SDS011;28923;45.412;10.852;2023-07-24T09:35:42;4.78;;;3.65;;
43327;SDS011;28923;45.412;10.852;2023-07-24T09:38:09;4.45;;;3.53;;
43327;SDS011;28923;45.412;10.852;2023-07-24T09:43:13;5.03;;;3.67;;
43327;SDS011;28923;45.412;10.852;2023-07-24T09:45:39;4.07;;;3.25;;
43327;SDS011;28923;45.412;10.852;2023-07-24T09:48:04;5.18;;;3.55;;
43327;SDS011;28923;45.412;10.852;2023-07-24T09:50:32;6.05;;;3.63;;
43327;SDS011;28923;45.412;10.852;2023-07-24T09:52:57;5.35;;;3.78;;
43327;SDS011;28923;45.412;10.852;2023-07-24T09:55:25;5.38;;;3.50;;
43327;SDS011;28923;45.412;10.852;2023-07-24T09:57:54;4.38;;;3.47;;
43327;SDS011;28923;45.412;10.852;2023-07-24T10:00:20;4.65;;;3.70;;
43327;SDS011;28923;45.412;10.852;2023-07-24T10:02:46;4.50;;;3.28;;
43327;SDS011;28923;45.412;10.852;2023-07-24T10:05:11;4.32;;;3.03;;
43327;SDS011;28923;45.412;10.852;2023-07-24T10:07:37;4.93;;;3.45;;
43327;SDS011;28923;45.412;10.852;2023-07-24T10:10:02;3.90;;;2.85;;
43327;SDS011;28923;45.412;10.852;2023-07-24T10:12:28;5.28;;;3.38;;
43327;SDS011;28923;45.412;10.852;2023-07-24T10:14:55;3.95;;;3.10;;
43327;SDS011;28923;45.412;10.852;2023-07-24T10:17:33;4.55;;;3.25;;
43327;SDS011;28923;45.412;10.852;2023-07-24T10:20:01;4.60;;;3.60;;
43327;SDS011;28923;45.412;10.852;2023-07-24T10:22:28;3.50;;;3.17;;
43327;SDS011;28923;45.412;10.852;2023-07-24T10:24:54;3.55;;;3.13;;
43327;SDS011;28923;45.412;10.852;2023-07-24T10:27:23;4.07;;;2.97;;
43327;SDS011;28923;45.412;10.852;2023-07-24T10:30:01;4.35;;;3.22;;
43327;SDS011;28923;45.412;10.852;2023-07-24T10:32:28;4.97;;;2.78;;
43327;SDS011;28923;45.412;10.852;2023-07-24T10:35:06;4.40;;;3.13;;
43327;SDS011;28923;45.412;10.852;2023-07-24T10:37:35;6.18;;;3.20;;
43327;SDS011;28923;45.412;10.852;2023-07-24T10:40:01;4.43;;;3.05;;
43327;SDS011;28923;45.412;10.852;2023-07-24T10:42:28;5.95;;;3.25;;
43327;SDS011;28923;45.412;10.852;2023-07-24T10:45:04;5.03;;;3.30;;
43327;SDS011;28923;45.412;10.852;2023-07-24T10:47:31;5.50;;;3.00;;
43327;SDS011;28923;45.412;10.852;2023-07-24T10:49:57;3.88;;;3.00;;
43327;SDS011;28923;45.412;10.852;2023-07-24T10:52:32;4.22;;;2.72;;
43327;SDS011;28923;45.412;10.852;2023-07-24T10:55:00;4.10;;;2.72;;
43327;SDS011;28923;45.412;10.852;2023-07-24T10:57:27;7.22;;;2.92;;
43327;SDS011;28923;45.412;10.852;2023-07-24T10:59:52;4.68;;;3.30;;
43327;SDS011;28923;45.412;10.852;2023-07-24T11:02:18;4.75;;;2.95;;
43327;SDS011;28923;45.412;10.852;2023-07-24T11:04:43;4.28;;;3.17;;
43327;SDS011;28923;45.412;10.852;2023-07-24T11:07:10;3.67;;;2.63;;
43327;SDS011;28923;45.412;10.852;2023-07-24T11:09:36;3.90;;;2.97;;
43327;SDS011;28923;45.412;10.852;2023-07-24T11:12:11;4.25;;;3.10;;
43327;SDS011;28923;45.412;10.852;2023-07-24T11:14:50;3.53;;;2.80;;
43327;SDS011;28923;45.412;10.852;2023-07-24T11:17:15;4.40;;;3.10;;
43327;SDS011;28923;45.412;10.852;2023-07-24T11:19:41;3.35;;;2.40;;
43327;SDS011;28923;45.412;10.852;2023-07-24T11:22:07;3.78;;;3.08;;
43327;SDS011;28923;45.412;10.852;2023-07-24T11:24:32;4.65;;;3.10;;
43327;SDS011;28923;45.412;10.852;2023-07-24T11:26:57;4.85;;;3.22;;
43327;SDS011;28923;45.412;10.852;2023-07-24T11:29:23;4.75;;;2.95;;
43327;SDS011;28923;45.412;10.852;2023-07-24T11:31:57;4.45;;;3.28;;
43327;SDS011;28923;45.412;10.852;2023-07-24T11:34:22;3.83;;;2.95;;
43327;SDS011;28923;45.412;10.852;2023-07-24T11:36:48;4.22;;;2.75;;
43327;SDS011;28923;45.412;10.852;2023-07-24T11:39:14;3.72;;;2.88;;
43327;SDS011;28923;45.412;10.852;2023-07-24T11:44:11;3.65;;;2.88;;
43327;SDS011;28923;45.412;10.852;2023-07-24T11:46:41;3.33;;;2.80;;
43327;SDS011;28923;45.412;10.852;2023-07-24T11:49:07;4.47;;;2.92;;
43327;SDS011;28923;45.412;10.852;2023-07-24T11:51:32;3.65;;;2.70;;
43327;SDS011;28923;45.412;10.852;2023-07-24T11:54:08;3.28;;;2.90;;
43327;SDS011;28923;45.412;10.852;2023-07-24T11:56:36;4.20;;;3.10;;
43327;SDS011;28923;45.412;10.852;2023-07-24T11:59:11;3.95;;;2.92;;
43327;SDS011;28923;45.412;10.852;2023-07-24T12:01:36;3.47;;;2.55;;
43327;SDS011;28923;45.412;10.852;2023-07-24T12:04:02;2.95;;;2.58;;
43327;SDS011;28923;45.412;10.852;2023-07-24T12:06:30;4.05;;;2.92;;
43327;SDS011;28923;45.412;10.852;2023-07-24T12:09:01;4.50;;;3.08;;
43327;SDS011;28923;45.412;10.852;2023-07-24T12:11:27;4.28;;;3.10;;
43327;SDS011;28923;45.412;10.852;2023-07-24T12:13:52;3.47;;;2.90;;
43327;SDS011;28923;45.412;10.852;2023-07-24T12:16:18;4.30;;;2.65;;
43327;SDS011;28923;45.412;10.852;2023-07-24T12:18:44;3.28;;;2.67;;
43327;SDS011;28923;45.412;10.852;2023-07-24T12:21:09;3.58;;;2.90;;
43327;SDS011;28923;45.412;10.852;2023-07-24T12:23:34;3.88;;;2.67;;
43327;SDS011;28923;45.412;10.852;2023-07-24T12:26:00;3.58;;;2.60;;
43327;SDS011;28923;45.412;10.852;2023-07-24T12:28:25;3.97;;;2.67;;
43327;SDS011;28923;45.412;10.852;2023-07-24T12:30:50;3.65;;;2.80;;
43327;SDS011;28923;45.412;10.852;2023-07-24T12:33:16;3.60;;;2.85;;
43327;SDS011;28923;45.412;10.852;2023-07-24T12:35:41;3.97;;;3.00;;
43327;SDS011;28923;45.412;10.852;2023-07-24T12:38:07;3.58;;;2.75;;
43327;SDS011;28923;45.412;10.852;2023-07-24T12:40:32;4.28;;;3.03;;
43327;SDS011;28923;45.412;10.852;2023-07-24T12:42:57;3.47;;;2.90;;
43327;SDS011;28923;45.412;10.852;2023-07-24T12:45:23;3.83;;;2.38;;
43327;SDS011;28923;45.412;10.852;2023-07-24T12:47:48;3.17;;;2.63;;
43327;SDS011;28923;45.412;10.852;2023-07-24T12:50:14;4.38;;;2.58;;
43327;SDS011;28923;45.412;10.852;2023-07-24T12:52:39;3.45;;;2.42;;
43327;SDS011;28923;45.412;10.852;2023-07-24T12:55:04;3.28;;;2.40;;
43327;SDS011;28923;45.412;10.852;2023-07-24T12:57:30;3.22;;;2.72;;
43327;SDS011;28923;45.412;10.852;2023-07-24T12:59:55;3.95;;;2.90;;
43327;SDS011;28923;45.412;10.852;2023-07-24T13:02:21;3.47;;;2.88;;
43327;SDS011;28923;45.412;10.852;2023-07-24T13:04:46;3.72;;;2.85;;
43327;SDS011;28923;45.412;10.852;2023-07-24T13:07:11;3.63;;;2.70;;
43327;SDS011;28923;45.412;10.852;2023-07-24T13:09:37;3.53;;;2.45;;
43327;SDS011;28923;45.412;10.852;2023-07-24T13:12:02;3.40;;;2.88;;
43327;SDS011;28923;45.412;10.852;2023-07-24T13:14:28;3.33;;;2.45;;
43327;SDS011;28923;45.412;10.852;2023-07-24T13:16:53;3.60;;;2.97;;
43327;SDS011;28923;45.412;10.852;2023-07-24T13:19:18;3.05;;;2.60;;
43327;SDS011;28923;45.412;10.852;2023-07-24T13:21:44;3.30;;;2.55;;
43327;SDS011;28923;45.412;10.852;2023-07-24T13:24:10;2.55;;;2.17;;
43327;SDS011;28923;45.412;10.852;2023-07-24T13:26:36;3.88;;;2.60;;
43327;SDS011;28923;45.412;10.852;2023-07-24T13:29:02;3.45;;;2.53;;
43327;SDS011;28923;45.412;10.852;2023-07-24T13:31:28;3.13;;;2.50;;
43327;SDS011;28923;45.412;10.852;2023-07-24T13:33:54;3.67;;;3.00;;
43327;SDS011;28923;45.412;10.852;2023-07-24T13:36:19;3.47;;;2.90;;
43327;SDS011;28923;45.412;10.852;2023-07-24T13:38:44;3.40;;;2.50;;
43327;SDS011;28923;45.412;10.852;2023-07-24T13:41:10;2.92;;;2.63;;
43327;SDS011;28923;45.412;10.852;2023-07-24T13:43:35;2.95;;;2.45;;
43327;SDS011;28923;45.412;10.852;2023-07-24T13:46:00;4.30;;;2.40;;
43327;SDS011;28923;45.412;10.852;2023-07-24T13:48:28;4.57;;;2.35;;
43327;SDS011;28923;45.412;10.852;2023-07-24T13:50:53;5.18;;;3.22;;
43327;SDS011;28923;45.412;10.852;2023-07-24T13:53:18;6.68;;;4.15;;
43327;SDS011;28923;45.412;10.852;2023-07-24T13:55:44;9.32;;;4.28;;
43327;SDS011;28923;45.412;10.852;2023-07-24T13:58:09;9.27;;;5.32;;
43327;SDS011;28923;45.412;10.852;2023-07-24T14:00:35;8.60;;;5.60;;
43327;SDS011;28923;45.412;10.852;2023-07-24T14:03:00;10.02;;;5.60;;
43327;SDS011;28923;45.412;10.852;2023-07-24T14:05:25;8.57;;;6.07;;
43327;SDS011;28923;45.412;10.852;2023-07-24T14:07:51;10.70;;;5.63;;
43327;SDS011;28923;45.412;10.852;2023-07-24T14:10:16;9.75;;;6.00;;
43327;SDS011;28923;45.412;10.852;2023-07-24T14:12:42;11.88;;;6.57;;
43327;SDS011;28923;45.412;10.852;2023-07-24T14:15:07;9.70;;;6.30;;
43327;SDS011;28923;45.412;10.852;2023-07-24T14:17:33;9.38;;;5.78;;
43327;SDS011;28923;45.412;10.852;2023-07-24T14:20:00;11.35;;;5.97;;
43327;SDS011;28923;45.412;10.852;2023-07-24T14:22:25;13.50;;;5.60;;
43327;SDS011;28923;45.412;10.852;2023-07-24T14:24:51;9.75;;;5.70;;
43327;SDS011;28923;45.412;10.852;2023-07-24T14:27:16;10.43;;;5.45;;
43327;SDS011;28923;45.412;10.852;2023-07-24T14:29:41;9.20;;;5.75;;
43327;SDS011;28923;45.412;10.852;2023-07-24T14:32:07;9.52;;;5.63;;
43327;SDS011;28923;45.412;10.852;2023-07-24T14:34:32;8.77;;;5.43;;
43327;SDS011;28923;45.412;10.852;2023-07-24T14:36:58;8.23;;;5.10;;
43327;SDS011;28923;45.412;10.852;2023-07-24T14:39:23;8.00;;;5.10;;
43327;SDS011;28923;45.412;10.852;2023-07-24T14:41:49;8.13;;;5.68;;
43327;SDS011;28923;45.412;10.852;2023-07-24T14:44:14;9.60;;;5.65;;
43327;SDS011;28923;45.412;10.852;2023-07-24T14:46:39;8.50;;;5.47;;
43327;SDS011;28923;45.412;10.852;2023-07-24T14:49:05;10.10;;;5.18;;
43327;SDS011;28923;45.412;10.852;2023-07-24T14:51:30;7.70;;;5.20;;
43327;SDS011;28923;45.412;10.852;2023-07-24T14:53:56;8.43;;;4.90;;
43327;SDS011;28923;45.412;10.852;2023-07-24T14:56:21;7.93;;;5.25;;
43327;SDS011;28923;45.412;10.852;2023-07-24T14:58:46;10.13;;;5.43;;
43327;SDS011;28923;45.412;10.852;2023-07-24T15:01:12;11.63;;;5.68;;
43327;SDS011;28923;45.412;10.852;2023-07-24T15:03:37;9.95;;;5.45;;
43327;SDS011;28923;45.412;10.852;2023-07-24T15:10:19;9.93;;;5.30;;
43327;SDS011;28923;45.412;10.852;2023-07-24T15:13:05;9.48;;;5.05;;
43327;SDS011;28923;45.412;10.852;2023-07-24T15:15:30;6.95;;;4.38;;
43327;SDS011;28923;45.412;10.852;2023-07-24T15:17:58;7.78;;;4.70;;
43327;SDS011;28923;45.412;10.852;2023-07-24T15:20:24;7.00;;;4.53;;
43327;SDS011;28923;45.412;10.852;2023-07-24T15:22:50;6.15;;;4.35;;
43327;SDS011;28923;45.412;10.852;2023-07-24T15:25:19;7.20;;;4.07;;
43327;SDS011;28923;45.412;10.852;2023-07-24T15:27:44;5.68;;;3.90;;
43327;SDS011;28923;45.412;10.852;2023-07-24T15:30:10;6.20;;;4.18;;
43327;SDS011;28923;45.412;10.852;2023-07-24T15:32:36;7.38;;;4.47;;
43327;SDS011;28923;45.412;10.852;2023-07-24T15:35:02;6.70;;;4.32;;
43327;SDS011;28923;45.412;10.852;2023-07-24T15:37:27;6.45;;;4.20;;
43327;SDS011;28923;45.412;10.852;2023-07-24T15:39:55;5.97;;;3.70;;
43327;SDS011;28923;45.412;10.852;2023-07-24T15:42:21;7.15;;;4.22;;
43327;SDS011;28923;45.412;10.852;2023-07-24T15:44:48;5.25;;;3.75;;
43327;SDS011;28923;45.412;10.852;2023-07-24T15:47:13;6.95;;;3.60;;
43327;SDS011;28923;45.412;10.852;2023-07-24T15:49:39;6.35;;;3.83;;
43327;SDS011;28923;45.412;10.852;2023-07-24T15:52:05;5.88;;;3.75;;
43327;SDS011;28923;45.412;10.852;2023-07-24T15:54:31;5.65;;;3.67;;
43327;SDS011;28923;45.412;10.852;2023-07-24T15:56:57;5.50;;;3.83;;
43327;SDS011;28923;45.412;10.852;2023-07-24T15:59:23;5.97;;;3.83;;
43327;SDS011;28923;45.412;10.852;2023-07-24T16:01:48;7.00;;;3.80;;
43327;SDS011;28923;45.412;10.852;2023-07-24T16:04:14;5.80;;;3.53;;
43327;SDS011;28923;45.412;10.852;2023-07-24T16:06:40;4.80;;;3.35;;
43327;SDS011;28923;45.412;10.852;2023-07-24T16:09:06;7.35;;;3.85;;
43327;SDS011;28923;45.412;10.852;2023-07-24T16:11:31;6.35;;;3.90;;
43327;SDS011;28923;45.412;10.852;2023-07-24T16:13:57;5.57;;;3.70;;
43327;SDS011;28923;45.412;10.852;2023-07-24T16:16:23;7.88;;;4.13;;
43327;SDS011;28923;45.412;10.852;2023-07-24T16:21:17;6.60;;;3.92;;
43327;SDS011;28923;45.412;10.852;2023-07-24T16:23:43;5.43;;;3.42;;
43327;SDS011;28923;45.412;10.852;2023-07-24T16:26:08;6.50;;;3.78;;
43327;SDS011;28923;45.412;10.852;2023-07-24T16:28:34;10.05;;;3.65;;
43327;SDS011;28923;45.412;10.852;2023-07-24T16:31:00;8.85;;;4.20;;
43327;SDS011;28923;45.412;10.852;2023-07-24T16:33:25;6.68;;;3.95;;
43327;SDS011;28923;45.412;10.852;2023-07-24T16:35:53;6.75;;;3.67;;
43327;SDS011;28923;45.412;10.852;2023-07-24T16:38:19;7.03;;;4.20;;
43327;SDS011;28923;45.412;10.852;2023-07-24T16:40:44;6.35;;;3.63;;
43327;SDS011;28923;45.412;10.852;2023-07-24T16:43:10;6.30;;;3.33;;
43327;SDS011;28923;45.412;10.852;2023-07-24T16:45:36;6.70;;;3.78;;
43327;SDS011;28923;45.412;10.852;2023-07-24T16:48:03;5.57;;;3.65;;
43327;SDS011;28923;45.412;10.852;2023-07-24T16:53:28;6.20;;;3.80;;
43327;SDS011;28923;45.412;10.852;2023-07-24T16:55:54;5.97;;;3.72;;
43327;SDS011;28923;45.412;10.852;2023-07-24T16:58:19;4.93;;;3.35;;
43327;SDS011;28923;45.412;10.852;2023-07-24T17:00:45;6.20;;;3.53;;
43327;SDS011;28923;45.412;10.852;2023-07-24T17:03:11;5.97;;;3.65;;
43327;SDS011;28923;45.412;10.852;2023-07-24T17:05:37;5.72;;;3.85;;
43327;SDS011;28923;45.412;10.852;2023-07-24T17:08:02;6.82;;;3.67;;
43327;SDS011;28923;45.412;10.852;2023-07-24T17:10:30;6.65;;;3.70;;
43327;SDS011;28923;45.412;10.852;2023-07-24T17:13:05;7.68;;;3.85;;
43327;SDS011;28923;45.412;10.852;2023-07-24T17:15:31;10.98;;;5.00;;
43327;SDS011;28923;45.412;10.852;2023-07-24T17:17:56;8.48;;;5.13;;
43327;SDS011;28923;45.412;10.852;2023-07-24T17:20:22;8.88;;;5.57;;
43327;SDS011;28923;45.412;10.852;2023-07-24T17:22:48;9.07;;;5.35;;
43327;SDS011;28923;45.412;10.852;2023-07-24T17:25:13;8.50;;;5.85;;
43327;SDS011;28923;45.412;10.852;2023-07-24T17:27:39;9.07;;;5.20;;
43327;SDS011;28923;45.412;10.852;2023-07-24T17:30:06;10.45;;;5.43;;
43327;SDS011;28923;45.412;10.852;2023-07-24T17:32:32;8.70;;;5.28;;
43327;SDS011;28923;45.412;10.852;2023-07-24T17:34:57;10.43;;;5.30;;
43327;SDS011;28923;45.412;10.852;2023-07-24T17:37:23;7.32;;;4.88;;
43327;SDS011;28923;45.412;10.852;2023-07-24T17:39:49;10.95;;;5.50;;
43327;SDS011;28923;45.412;10.852;2023-07-24T17:42:15;9.38;;;5.50;;
43327;SDS011;28923;45.412;10.852;2023-07-24T17:44:40;8.68;;;5.20;;
43327;SDS011;28923;45.412;10.852;2023-07-24T17:47:07;8.27;;;5.40;;
43327;SDS011;28923;45.412;10.852;2023-07-24T17:49:33;8.40;;;5.15;;
43327;SDS011;28923;45.412;10.852;2023-07-24T17:51:58;7.80;;;5.32;;
43327;SDS011;28923;45.412;10.852;2023-07-24T17:54:24;9.30;;;5.45;;
43327;SDS011;28923;45.412;10.852;2023-07-24T17:56:52;16.15;;;6.25;;
43327;SDS011;28923;45.412;10.852;2023-07-24T17:59:19;14.27;;;6.57;;
43327;SDS011;28923;45.412;10.852;2023-07-24T18:01:46;15.57;;;6.57;;
43327;SDS011;28923;45.412;10.852;2023-07-24T18:04:12;12.10;;;6.40;;
43327;SDS011;28923;45.412;10.852;2023-07-24T18:06:38;13.23;;;6.18;;
43327;SDS011;28923;45.412;10.852;2023-07-24T18:09:03;8.77;;;5.78;;
43327;SDS011;28923;45.412;10.852;2023-07-24T18:11:30;10.18;;;5.75;;
43327;SDS011;28923;45.412;10.852;2023-07-24T18:13:56;11.50;;;5.63;;
43327;SDS011;28923;45.412;10.852;2023-07-24T18:16:22;10.38;;;5.50;;
43327;SDS011;28923;45.412;10.852;2023-07-24T18:18:47;8.48;;;4.72;;
43327;SDS011;28923;45.412;10.852;2023-07-24T18:21:13;7.70;;;5.35;;
43327;SDS011;28923;45.412;10.852;2023-07-24T18:23:39;8.15;;;5.03;;
43327;SDS011;28923;45.412;10.852;2023-07-24T18:26:04;8.70;;;5.32;;
43327;SDS011;28923;45.412;10.852;2023-07-24T18:28:30;9.98;;;5.25;;
43327;SDS011;28923;45.412;10.852;2023-07-24T18:30:55;8.30;;;5.38;;
43327;SDS011;28923;45.412;10.852;2023-07-24T18:33:21;8.70;;;5.03;;
43327;SDS011;28923;45.412;10.852;2023-07-24T18:35:47;10.93;;;5.55;;
43327;SDS011;28923;45.412;10.852;2023-07-24T18:38:12;10.90;;;5.65;;
43327;SDS011;28923;45.412;10.852;2023-07-24T18:40:38;11.13;;;5.13;;
43327;SDS011;28923;45.412;10.852;2023-07-24T18:43:04;7.93;;;4.75;;
43327;SDS011;28923;45.412;10.852;2023-07-24T18:45:29;9.02;;;4.80;;
43327;SDS011;28923;45.412;10.852;2023-07-24T18:47:55;6.97;;;4.70;;
43327;SDS011;28923;45.412;10.852;2023-07-24T18:50:23;8.82;;;5.05;;
43327;SDS011;28923;45.412;10.852;2023-07-24T18:52:49;10.40;;;5.13;;
43327;SDS011;28923;45.412;10.852;2023-07-24T18:55:14;9.73;;;4.97;;
43327;SDS011;28923;45.412;10.852;2023-07-24T18:57:40;8.65;;;5.05;;
43327;SDS011;28923;45.412;10.852;2023-07-24T19:00:06;8.35;;;5.03;;
43327;SDS011;28923;45.412;10.852;2023-07-24T19:02:32;7.18;;;4.38;;
43327;SDS011;28923;45.412;10.852;2023-07-24T19:04:57;10.45;;;5.03;;
43327;SDS011;28923;45.412;10.852;2023-07-24T19:07:23;7.50;;;4.75;;
43327;SDS011;28923;45.412;10.852;2023-07-24T19:09:49;7.07;;;4.57;;
43327;SDS011;28923;45.412;10.852;2023-07-24T19:12:14;10.05;;;5.13;;
43327;SDS011;28923;45.412;10.852;2023-07-24T19:14:42;8.70;;;5.10;;